Time;durP1;ratioP1;P1;durP2;ratioP2;P2;SDS_P1;SDS_P2;PMS_P1;PMS_P2;Temp;Humidity;BMP_temperature;BMP_pressure;BME280_temperature;BME280_humidity;BME280_pressure;Samples;Min_cycle;Max_cycle;Signal;HPM_P1;HPM_P2
2022/05/09 00:00:25;;;;;;;7.03;5.55;;;13.20;66.10;;;;;;5058359;28;20763;-84
2022/05/09 00:02:52;;;;;;;16.08;5.53;;;13.20;66.20;;;;;;5059436;28;20176;-84
2022/05/09 00:05:20;;;;;;;8.85;4.88;;;13.20;66.20;;;;;;5060129;28;20260;-83
2022/05/09 00:07:46;;;;;;;15.98;5.45;;;13.20;66.90;;;;;;5079762;28;20214;-84
2022/05/09 00:10:14;;;;;;;7.80;5.25;;;13.20;65.90;;;;;;5084735;28;20180;-83
2022/05/09 00:12:40;;;;;;;10.35;4.85;;;13.10;66.20;;;;;;5104539;28;20210;-83
2022/05/09 00:15:08;;;;;;;12.55;6.53;;;13.10;66.00;;;;;;5063724;28;20849;-83
2022/05/09 00:17:34;;;;;;;9.52;4.70;;;13.10;65.90;;;;;;5079538;28;20200;-83
2022/05/09 00:20:00;;;;;;;10.15;6.00;;;13.10;66.20;;;;;;5096619;28;20172;-83
2022/05/09 00:22:26;;;;;;;8.40;5.27;;;13.10;65.90;;;;;;5086356;28;20175;-83
2022/05/09 00:24:53;;;;;;;11.77;5.68;;;13.10;66.00;;;;;;5119293;28;20303;-83
2022/05/09 00:27:18;;;;;;;9.20;4.83;;;13.00;66.20;;;;;;5102011;28;20175;-83
2022/05/09 00:29:44;;;;;;;12.43;6.03;;;13.00;66.10;;;;;;5120200;28;20715;-83
2022/05/09 00:32:10;;;;;;;10.43;5.93;;;12.90;66.50;;;;;;5120016;28;20163;-83
2022/05/09 00:34:37;;;;;;;15.50;7.03;;;12.90;66.70;;;;;;5102346;28;20167;-83
2022/05/09 00:37:04;;;;;;;11.07;5.68;;;12.90;66.80;;;;;;5084071;28;20176;-83
2022/05/09 00:39:32;;;;;;;10.85;5.60;;;12.90;66.50;;;;;;5063134;28;20208;-83
2022/05/09 00:42:13;;;;;;;9.93;5.78;;;12.90;66.40;;;;;;5081334;28;20177;-83
2022/05/09 00:44:39;;;;;;;12.25;5.40;;;12.90;66.10;;;;;;5063665;28;20180;-83
2022/05/09 00:47:05;;;;;;;20.48;5.72;;;12.80;66.00;;;;;;5064150;28;20172;-83
2022/05/09 00:49:40;;;;;;;11.48;6.10;;;12.70;66.60;;;;;;5065332;28;20200;-83
2022/05/09 00:52:38;;;;;;;12.70;5.68;;;12.70;66.90;;;;;;5087016;28;20167;-83
2022/05/09 00:55:06;;;;;;;11.55;5.68;;;12.70;67.30;;;;;;5067935;28;20192;-83
2022/05/09 00:57:50;;;;;;;11.02;5.57;;;12.60;66.80;;;;;;5080379;28;20204;-83
2022/05/09 01:00:19;;;;;;;13.15;6.50;;;12.70;66.40;;;;;;5078764;28;20189;-83
2022/05/09 01:02:49;;;;;;;8.27;5.40;;;12.60;66.70;;;;;;5076700;28;20287;-82
2022/05/09 01:05:16;;;;;;;11.88;5.70;;;12.60;66.60;;;;;;5041314;28;20184;-83
2022/05/09 01:07:43;;;;;;;14.88;5.75;;;12.60;66.70;;;;;;5057900;28;20219;-82
2022/05/09 01:10:15;;;;;;;14.20;6.15;;;12.60;66.60;;;;;;5062461;28;20180;-82
2022/05/09 01:12:44;;;;;;;15.48;5.95;;;12.60;66.90;;;;;;5078251;28;20559;-83
2022/05/09 01:15:16;;;;;;;16.65;7.22;;;12.50;67.20;;;;;;5078599;28;20270;-83
2022/05/09 01:17:43;;;;;;;9.65;6.65;;;12.60;67.20;;;;;;5078686;28;20219;-83
2022/05/09 01:20:11;;;;;;;13.05;6.40;;;12.50;67.40;;;;;;5080065;28;20233;-83
2022/05/09 01:22:39;;;;;;;12.20;6.55;;;12.50;67.60;;;;;;5086446;28;20167;-83
2022/05/09 01:25:15;;;;;;;7.90;6.15;;;12.60;67.20;;;;;;5115843;28;20168;-83
2022/05/09 01:27:43;;;;;;;14.75;6.22;;;12.50;66.80;;;;;;5086797;28;20635;-83
2022/05/09 01:30:17;;;;;;;13.43;6.43;;;12.50;66.90;;;;;;5076583;28;20188;-83
2022/05/09 01:32:58;;;;;;;9.75;6.45;;;12.60;66.70;;;;;;5076902;28;20541;-83
2022/05/09 01:36:08;;;;;;;16.55;7.15;;;12.40;66.90;;;;;;5077798;28;20252;-83
2022/05/09 01:38:50;;;;;;;9.68;5.40;;;12.50;66.60;;;;;;4974503;28;20202;-83
2022/05/09 01:41:16;;;;;;;9.40;5.57;;;12.40;66.40;;;;;;5053292;28;20568;-82
2022/05/09 01:43:48;;;;;;;9.00;6.38;;;12.50;66.30;;;;;;5058087;28;20259;-82
2022/05/09 01:46:21;;;;;;;20.30;6.18;;;12.40;66.20;;;;;;5057468;28;20176;-81
2022/05/09 01:51:33;;;;;;;8.57;6.20;;;12.20;66.80;;;;;;5076556;28;20555;-83
2022/05/09 01:53:59;;;;;;;9.13;6.30;;;12.30;66.80;;;;;;5061282;28;20214;-83
2022/05/09 01:56:32;;;;;;;11.00;6.68;;;12.20;66.70;;;;;;5078944;28;20187;-82
2022/05/09 01:58:58;;;;;;;16.88;7.35;;;12.20;66.70;;;;;;5064799;28;20205;-82
2022/05/09 02:01:28;;;;;;;10.82;7.35;;;12.20;67.00;;;;;;5063743;28;20180;-82
2022/05/09 02:03:54;;;;;;;15.95;6.40;;;12.10;67.40;;;;;;5068941;28;20169;-82
2022/05/09 02:06:21;;;;;;;13.10;7.60;;;12.10;67.40;;;;;;5077472;28;20180;-83
2022/05/09 02:08:47;;;;;;;9.90;5.72;;;12.10;67.50;;;;;;5059829;28;20215;-83
2022/05/09 02:11:13;;;;;;;14.45;6.88;;;12.10;67.10;;;;;;5062010;28;20184;-83
2022/05/09 02:13:39;;;;;;;9.50;5.70;;;12.10;66.90;;;;;;5078824;28;20180;-82
2022/05/09 02:16:05;;;;;;;8.13;6.03;;;12.10;67.60;;;;;;5098292;28;20492;-82
2022/05/09 02:18:35;;;;;;;13.98;6.50;;;12.00;67.30;;;;;;5098159;28;20218;-83
2022/05/09 02:21:01;;;;;;;12.85;7.10;;;12.10;66.90;;;;;;5080160;28;20171;-83
2022/05/09 02:23:27;;;;;;;9.85;7.40;;;12.10;66.80;;;;;;5097239;28;20175;-83
2022/05/09 02:25:53;;;;;;;12.60;5.83;;;12.00;66.90;;;;;;5100650;28;20247;-83
2022/05/09 02:28:21;;;;;;;14.47;6.30;;;11.90;67.70;;;;;;5105613;28;20201;-83
2022/05/09 02:30:47;;;;;;;13.30;7.30;;;11.90;67.50;;;;;;5088004;28;20456;-83
2022/05/09 02:33:13;;;;;;;17.40;7.07;;;11.90;67.70;;;;;;5062145;28;20246;-83
2022/05/09 02:35:40;;;;;;;13.77;7.80;;;11.90;68.00;;;;;;5059339;28;20219;-83
2022/05/09 02:38:07;;;;;;;11.05;7.13;;;11.80;68.10;;;;;;5076968;28;20272;-83
2022/05/09 02:40:36;;;;;;;20.95;7.43;;;11.80;68.40;;;;;;5059059;28;20548;-83
2022/05/09 02:43:03;;;;;;;10.02;6.43;;;11.80;68.20;;;;;;5059319;28;20303;-83
2022/05/09 02:45:30;;;;;;;10.77;7.00;;;11.80;68.40;;;;;;5059029;28;20176;-82
2022/05/09 02:47:57;;;;;;;11.15;7.00;;;11.80;67.70;;;;;;5061332;28;20227;-82
2022/05/09 02:50:25;;;;;;;11.70;6.82;;;11.80;67.90;;;;;;5060909;28;20226;-82
2022/05/09 02:52:52;;;;;;;8.40;5.82;;;11.80;67.80;;;;;;5059769;28;20181;-82
2022/05/09 02:55:19;;;;;;;13.05;7.60;;;11.80;67.80;;;;;;5055579;28;20230;-83
2022/05/09 02:57:45;;;;;;;14.35;7.95;;;11.70;68.30;;;;;;5055225;28;20235;-83
2022/05/09 03:00:16;;;;;;;11.02;6.18;;;11.70;68.40;;;;;;5074221;28;20218;-83
2022/05/09 03:02:41;;;;;;;13.15;7.20;;;11.60;68.60;;;;;;5055799;28;20242;-82
2022/05/09 03:05:08;;;;;;;13.67;6.40;;;11.60;68.80;;;;;;5060870;28;20172;-83
2022/05/09 03:07:34;;;;;;;25.05;7.97;;;11.60;69.00;;;;;;5074367;28;20460;-82
2022/05/09 03:10:00;;;;;;;8.45;6.72;;;11.70;68.80;;;;;;5056431;28;20271;-83
2022/05/09 03:12:26;;;;;;;12.30;7.80;;;11.60;68.50;;;;;;5057426;28;20200;-82
2022/05/09 03:14:52;;;;;;;10.53;7.13;;;11.60;68.50;;;;;;5058171;28;20633;-83
2022/05/09 03:17:18;;;;;;;16.50;8.00;;;11.60;68.50;;;;;;5058168;28;20423;-82
2022/05/09 03:19:44;;;;;;;14.23;8.07;;;11.60;68.50;;;;;;5058354;28;20260;-82
2022/05/09 03:22:10;;;;;;;15.47;6.57;;;11.60;69.10;;;;;;5070249;28;20202;-82
2022/05/09 03:24:36;;;;;;;10.68;6.63;;;11.60;68.40;;;;;;5101192;28;20421;-83
2022/05/09 03:27:03;;;;;;;12.93;7.00;;;11.60;68.20;;;;;;5102453;28;20179;-82
2022/05/09 03:29:31;;;;;;;12.32;8.23;;;11.60;68.10;;;;;;5101593;28;20282;-82
2022/05/09 03:31:57;;;;;;;13.20;7.57;;;11.60;68.30;;;;;;5102143;28;20187;-82
2022/05/09 03:34:23;;;;;;;9.80;6.30;;;11.50;68.40;;;;;;5118618;28;20175;-83
2022/05/09 03:36:51;;;;;;;14.43;7.17;;;11.50;68.40;;;;;;5091864;28;20179;-83
2022/05/09 03:39:18;;;;;;;13.60;7.28;;;11.50;68.60;;;;;;5078164;28;20809;-82
2022/05/09 03:41:44;;;;;;;12.95;7.70;;;11.40;68.50;;;;;;5078085;28;20325;-82
2022/05/09 03:44:09;;;;;;;13.97;7.23;;;11.40;68.90;;;;;;5096781;28;20214;-82
2022/05/09 03:46:35;;;;;;;15.73;7.40;;;11.40;68.80;;;;;;5078844;28;20418;-83
2022/05/09 03:49:02;;;;;;;18.07;7.97;;;11.40;68.40;;;;;;5078605;28;20200;-83
2022/05/09 03:51:28;;;;;;;12.63;6.78;;;11.30;68.20;;;;;;5078198;28;20263;-83
2022/05/09 03:53:53;;;;;;;9.85;6.03;;;11.40;68.20;;;;;;5060042;28;20188;-83
2022/05/09 03:56:19;;;;;;;14.33;8.10;;;11.30;68.30;;;;;;5061238;28;20613;-82
2022/05/09 03:58:45;;;;;;;8.40;7.30;;;11.30;68.50;;;;;;5079874;28;20219;-83
2022/05/09 04:01:11;;;;;;;11.07;6.70;;;11.30;69.20;;;;;;5078479;28;20568;-83
2022/05/09 04:03:38;;;;;;;15.23;6.45;;;11.20;68.90;;;;;;5076691;28;20636;-83
2022/05/09 04:06:04;;;;;;;18.15;8.00;;;11.30;68.90;;;;;;5059472;28;20176;-83
2022/05/09 04:08:31;;;;;;;20.02;6.97;;;11.30;68.70;;;;;;5062534;28;20223;-83
2022/05/09 04:10:57;;;;;;;13.30;6.97;;;11.30;68.70;;;;;;5084103;28;20221;-83
2022/05/09 04:13:23;;;;;;;9.60;7.23;;;11.30;68.60;;;;;;5079035;28;20266;-83
2022/05/09 04:18:41;;;;;;;10.50;7.13;;;11.30;68.60;;;;;;5082830;28;20269;-84
2022/05/09 04:21:09;;;;;;;9.13;6.53;;;11.30;68.20;;;;;;5058876;28;20169;-83
2022/05/09 04:23:35;;;;;;;14.80;6.75;;;11.30;68.30;;;;;;5098434;28;20228;-84
2022/05/09 04:26:01;;;;;;;14.48;7.30;;;11.30;68.20;;;;;;5107313;28;20569;-84
2022/05/09 04:28:27;;;;;;;11.30;6.45;;;11.30;68.10;;;;;;5111907;28;20556;-83
2022/05/09 04:30:53;;;;;;;16.57;7.53;;;11.40;67.70;;;;;;5103461;28;20266;-82
2022/05/09 04:33:19;;;;;;;13.43;7.20;;;11.30;67.70;;;;;;5100168;28;20432;-84
2022/05/09 04:35:45;;;;;;;11.07;6.47;;;11.30;68.10;;;;;;5098355;28;20179;-84
2022/05/09 04:38:22;;;;;;;11.53;7.03;;;11.30;68.10;;;;;;5115706;28;20252;-82
2022/05/09 04:40:51;;;;;;;16.10;6.80;;;11.30;68.10;;;;;;5097785;28;20804;-82
2022/05/09 04:43:26;;;;;;;11.00;6.85;;;11.40;68.10;;;;;;5115823;28;20232;-83
2022/05/09 04:45:52;;;;;;;12.85;7.18;;;11.40;67.90;;;;;;5108997;28;20267;-83
2022/05/09 04:48:21;;;;;;;13.13;7.23;;;11.50;67.50;;;;;;5076545;28;20290;-85
2022/05/09 04:50:48;;;;;;;21.40;6.75;;;11.60;67.10;;;;;;5076588;28;20457;-83
2022/05/09 04:53:13;;;;;;;13.18;8.63;;;11.50;67.30;;;;;;5076756;28;20183;-83
2022/05/09 04:55:40;;;;;;;10.20;6.43;;;11.50;67.60;;;;;;5077007;28;20674;-83
2022/05/09 04:58:06;;;;;;;10.25;6.78;;;11.50;67.70;;;;;;5076498;28;20469;-83
2022/05/09 05:00:33;;;;;;;9.77;6.43;;;11.50;67.40;;;;;;5076805;28;20186;-83
2022/05/09 05:02:59;;;;;;;14.90;6.80;;;11.60;67.20;;;;;;5068293;28;20676;-83
2022/05/09 05:05:26;;;;;;;13.17;6.50;;;11.70;66.80;;;;;;5057420;28;20181;-83
2022/05/09 05:07:52;;;;;;;13.43;6.28;;;11.70;66.40;;;;;;5056538;28;20638;-82
2022/05/09 05:10:19;;;;;;;22.55;8.30;;;11.70;66.00;;;;;;5056730;28;20169;-82
2022/05/09 05:12:45;;;;;;;13.82;6.78;;;11.70;66.10;;;;;;5056454;28;20314;-82
2022/05/09 05:15:12;;;;;;;10.93;6.20;;;11.70;66.20;;;;;;5078088;28;20226;-82
2022/05/09 05:17:39;;;;;;;8.55;6.43;;;11.80;66.20;;;;;;5096593;28;20182;-82
2022/05/09 05:20:09;;;;;;;11.63;6.35;;;11.90;65.80;;;;;;5097313;28;20235;-82
2022/05/09 05:22:37;;;;;;;10.52;6.50;;;11.90;66.70;;;;;;5071717;28;20180;-83
2022/05/09 05:25:04;;;;;;;14.80;7.20;;;12.00;65.90;;;;;;5076957;28;20180;-82
2022/05/09 05:27:30;;;;;;;9.13;6.28;;;12.20;65.30;;;;;;5109659;28;20606;-82
2022/05/09 05:29:57;;;;;;;12.30;5.80;;;12.70;64.50;;;;;;5096848;28;20171;-83
2022/05/09 05:32:31;;;;;;;10.90;6.22;;;13.40;62.90;;;;;;5096710;28;20220;-83
2022/05/09 05:34:57;;;;;;;11.90;6.22;;;14.20;60.40;;;;;;5097114;28;20647;-83
2022/05/09 05:37:22;;;;;;;11.43;5.83;;;14.90;57.30;;;;;;5067951;28;20188;-83
2022/05/09 05:39:48;;;;;;;11.73;6.07;;;15.40;55.00;;;;;;5056705;28;20431;-83
2022/05/09 05:42:18;;;;;;;9.20;7.03;;;15.60;54.20;;;;;;5058526;28;20187;-83
2022/05/09 05:44:47;;;;;;;11.75;6.55;;;16.00;52.60;;;;;;5069774;28;20429;-83
2022/05/09 05:47:14;;;;;;;12.07;6.30;;;16.10;51.70;;;;;;5064535;28;20230;-83
2022/05/09 05:49:41;;;;;;;11.13;6.65;;;16.20;51.10;;;;;;5065926;28;20199;-84
2022/05/09 05:52:08;;;;;;;12.63;7.05;;;16.30;50.90;;;;;;5056013;28;20522;-83
2022/05/09 05:54:39;;;;;;;9.40;6.15;;;16.50;50.50;;;;;;5059599;28;20168;-84
2022/05/09 05:57:06;;;;;;;10.57;6.35;;;16.70;50.00;;;;;;5095682;28;20213;-83
2022/05/09 05:59:32;;;;;;;9.38;6.03;;;17.00;49.40;;;;;;5078936;28;20242;-82
2022/05/09 06:01:58;;;;;;;14.57;6.70;;;17.40;49.30;;;;;;5084734;28;20189;-83
2022/05/09 06:04:25;;;;;;;8.10;5.10;;;17.90;48.30;;;;;;5076974;28;20656;-83
2022/05/09 06:06:51;;;;;;;11.25;4.95;;;18.30;47.70;;;;;;5059614;28;20208;-84
2022/05/09 06:09:17;;;;;;;6.30;5.20;;;18.60;47.40;;;;;;5085102;28;20230;-85
2022/05/09 06:11:43;;;;;;;8.95;5.85;;;18.90;46.50;;;;;;5078643;28;20414;-84
2022/05/09 06:14:11;;;;;;;7.78;5.40;;;19.20;45.40;;;;;;5077213;28;20180;-84
2022/05/09 06:16:37;;;;;;;11.15;5.85;;;19.40;45.10;;;;;;5065091;28;20678;-85
2022/05/09 06:19:30;;;;;;;10.00;5.53;;;19.60;44.10;;;;;;5096528;28;20222;-84
2022/05/09 06:21:58;;;;;;;11.27;6.40;;;19.70;43.30;;;;;;5111301;28;20405;-84
2022/05/09 06:24:24;;;;;;;10.50;5.20;;;19.90;42.90;;;;;;5114052;28;20496;-84
2022/05/09 06:26:50;;;;;;;12.10;6.40;;;19.90;42.30;;;;;;5096247;28;20521;-84
2022/05/09 06:29:17;;;;;;;8.43;4.50;;;20.10;42.20;;;;;;5114429;28;20956;-84
2022/05/09 06:31:42;;;;;;;11.73;5.37;;;20.40;41.80;;;;;;5095535;28;20440;-84
2022/05/09 06:34:11;;;;;;;9.80;6.70;;;20.70;41.40;;;;;;5115029;28;20498;-84
2022/05/09 06:36:41;;;;;;;15.43;6.73;;;21.00;40.70;;;;;;5096069;28;20451;-83
2022/05/09 06:39:09;;;;;;;11.20;5.83;;;21.10;40.20;;;;;;5077659;28;20938;-83
2022/05/09 06:41:35;;;;;;;7.00;5.53;;;21.30;40.00;;;;;;5080469;28;20414;-83
2022/05/09 06:44:01;;;;;;;8.47;6.00;;;21.50;38.60;;;;;;5080928;28;20429;-84
2022/05/09 06:46:27;;;;;;;10.30;5.67;;;21.70;38.70;;;;;;5100895;28;20421;-84
2022/05/09 06:48:53;;;;;;;8.33;5.50;;;21.90;38.20;;;;;;5081301;28;20286;-84
2022/05/09 06:51:19;;;;;;;13.03;5.67;;;22.10;37.70;;;;;;5080444;28;20442;-84
2022/05/09 06:53:44;;;;;;;5.60;5.00;;;22.10;38.40;;;;;;5063454;28;20572;-84
2022/05/09 06:56:11;;;;;;;13.33;6.53;;;22.30;37.70;;;;;;5080898;28;20499;-84
2022/05/09 06:58:37;;;;;;;8.50;6.23;;;22.50;36.70;;;;;;5066044;28;20216;-85
2022/05/09 07:01:13;;;;;;;14.00;6.47;;;22.60;35.90;;;;;;5070577;28;20418;-84
2022/05/09 07:03:39;;;;;;;11.37;6.30;;;22.40;36.30;;;;;;5075353;28;20422;-87
2022/05/09 07:06:05;;;;;;;17.60;7.00;;;22.40;36.60;;;;;;5069774;28;20925;-84
2022/05/09 07:08:32;;;;;;;10.10;5.40;;;22.40;36.30;;;;;;5068794;28;20215;-85
2022/05/09 07:10:58;;;;;;;17.07;6.20;;;22.60;36.10;;;;;;5085013;28;20262;-84
2022/05/09 07:13:28;;;;;;;10.63;5.70;;;22.60;35.10;;;;;;5071237;28;20425;-85
2022/05/09 07:15:57;;;;;;;7.87;6.10;;;22.40;36.00;;;;;;5109390;28;20405;-85
2022/05/09 07:18:25;;;;;;;9.17;5.97;;;22.10;36.10;;;;;;5110598;28;20457;-84
2022/05/09 07:20:52;;;;;;;11.60;6.80;;;21.60;36.70;;;;;;5091816;28;20417;-84
2022/05/09 07:23:17;;;;;;;13.30;7.13;;;20.70;38.20;;;;;;5105885;28;20443;-85
2022/05/09 07:25:43;;;;;;;10.50;6.97;;;19.80;40.10;;;;;;5116696;28;20413;-85
2022/05/09 07:28:12;;;;;;;11.70;7.30;;;19.20;42.30;;;;;;5096439;28;20252;-84
2022/05/09 07:30:38;;;;;;;19.15;9.60;;;18.80;43.30;;;;;;5110991;28;20190;-84
2022/05/09 07:33:05;;;;;;;13.10;7.60;;;18.50;44.60;;;;;;5108912;28;20190;-84
2022/05/09 07:35:34;;;;;;;12.90;7.25;;;18.30;45.90;;;;;;5120998;28;20175;-84
2022/05/09 07:37:59;;;;;;;15.50;6.70;;;18.10;46.80;;;;;;5105300;28;20246;-85
2022/05/09 07:40:26;;;;;;;28.30;9.00;;;18.00;46.80;;;;;;5103842;28;20175;-84
2022/05/09 07:42:51;;;;;;;12.30;7.50;;;18.00;47.30;;;;;;5125902;28;20182;-84
2022/05/09 07:45:19;;;;;;;17.70;7.50;;;17.90;47.50;;;;;;5108395;28;20179;-84
2022/05/09 07:47:46;;;;;;;13.68;7.20;;;17.70;48.00;;;;;;5107947;28;20206;-84
2022/05/09 07:50:13;;;;;;;12.48;6.43;;;17.70;48.50;;;;;;5106261;28;20178;-84
2022/05/09 07:52:42;;;;;;;11.93;6.55;;;17.70;48.50;;;;;;5104104;28;20178;-84
2022/05/09 07:55:09;;;;;;;9.45;6.28;;;17.70;48.30;;;;;;5103962;28;20176;-84
2022/05/09 07:57:35;;;;;;;10.85;7.60;;;17.50;48.70;;;;;;5104152;28;20554;-83
2022/05/09 08:00:02;;;;;;;18.65;7.80;;;17.60;48.30;;;;;;5109176;28;20265;-84
2022/05/09 08:02:29;;;;;;;11.98;6.80;;;17.40;49.10;;;;;;5089659;28;20172;-85
2022/05/09 08:04:55;;;;;;;13.13;7.47;;;17.40;50.00;;;;;;5085253;28;20187;-85
2022/05/09 08:07:20;;;;;;;10.50;6.60;;;17.50;49.70;;;;;;5085984;28;20191;-84
2022/05/09 08:09:46;;;;;;;9.40;5.83;;;17.60;49.50;;;;;;5083511;28;20200;-84
2022/05/09 08:12:12;;;;;;;14.83;6.10;;;17.60;49.10;;;;;;5081130;28;20175;-84
2022/05/09 08:14:37;;;;;;;11.53;6.57;;;17.60;49.40;;;;;;5084370;28;20180;-84
2022/05/09 08:17:08;;;;;;;16.40;6.83;;;17.60;49.40;;;;;;5104775;28;20184;-84
2022/05/09 08:19:33;;;;;;;10.77;6.35;;;17.70;49.00;;;;;;5105412;28;20594;-84
2022/05/09 08:22:00;;;;;;;13.70;6.30;;;17.70;49.00;;;;;;5105579;28;20182;-84
2022/05/09 08:24:28;;;;;;;11.80;6.50;;;17.90;49.20;;;;;;5095270;28;20183;-85
2022/05/09 08:26:53;;;;;;;10.60;6.70;;;18.00;48.80;;;;;;5082205;28;20271;-84
2022/05/09 08:29:19;;;;;;;11.00;6.20;;;17.80;48.40;;;;;;5082144;28;20274;-85
2022/05/09 08:31:45;;;;;;;16.30;5.67;;;17.90;49.00;;;;;;5095083;28;20177;-84
2022/05/09 08:34:11;;;;;;;10.80;5.93;;;18.10;49.20;;;;;;5066095;28;20212;-84
2022/05/09 08:36:50;;;;;;;8.30;5.53;;;18.20;48.60;;;;;;5062255;28;20486;-84
2022/05/09 08:39:16;;;;;;;8.90;5.82;;;18.30;48.00;;;;;;5078059;28;20207;-84
2022/05/09 08:41:54;;;;;;;8.80;5.82;;;18.20;48.40;;;;;;5060997;28;20671;-85
2022/05/09 08:44:27;;;;;;;8.60;6.03;;;18.20;48.50;;;;;;5080002;28;20172;-84
2022/05/09 08:47:25;;;;;;;11.63;5.57;;;18.30;47.80;;;;;;5061938;28;20182;-84
2022/05/09 08:50:03;;;;;;;10.10;5.80;;;18.40;47.00;;;;;;5024863;28;20207;-84
2022/05/09 08:52:42;;;;;;;14.38;6.53;;;18.40;46.00;;;;;;5080507;28;20266;-85
2022/05/09 08:55:10;;;;;;;13.13;4.88;;;18.40;47.10;;;;;;5084655;28;20171;-84
2022/05/09 08:58:03;;;;;;;9.98;4.85;;;18.50;46.40;;;;;;5090936;28;20184;-84
2022/05/09 09:00:31;;;;;;;8.13;4.68;;;18.60;44.30;;;;;;5087722;28;20202;-84
2022/05/09 09:03:11;;;;;;;9.07;4.13;;;18.50;44.50;;;;;;5106830;28;20168;-85
2022/05/09 09:05:41;;;;;;;9.80;4.95;;;18.60;44.40;;;;;;5081816;28;20171;-84
2022/05/09 09:08:37;;;;;;;7.05;3.40;;;18.60;44.10;;;;;;5061302;28;20592;-84
2022/05/09 09:11:39;;;;;;;11.98;4.15;;;18.70;42.30;;;;;;5061419;28;20660;-85
2022/05/09 09:14:27;;;;;;;3.95;2.83;;;18.80;42.70;;;;;;5060833;28;20180;-84
2022/05/09 09:17:19;;;;;;;7.82;4.03;;;18.80;42.70;;;;;;5079875;28;20244;-84
2022/05/09 09:19:56;;;;;;;6.40;4.53;;;18.80;41.60;;;;;;5029252;28;20224;-84
2022/05/09 09:22:54;;;;;;;8.40;3.92;;;18.90;41.10;;;;;;5086816;28;20195;-85
2022/05/09 09:25:24;;;;;;;9.07;4.35;;;18.80;41.50;;;;;;5102995;28;20171;-84
2022/05/09 09:27:55;;;;;;;8.25;3.95;;;18.90;41.60;;;;;;5083799;28;20196;-84
2022/05/09 09:30:24;;;;;;;7.38;3.58;;;18.90;42.00;;;;;;5087647;28;20181;-84
2022/05/09 09:33:03;;;;;;;3.28;2.70;;;19.10;40.80;;;;;;5067604;28;20188;-84
2022/05/09 09:35:48;;;;;;;6.13;3.10;;;19.10;41.10;;;;;;5065707;28;20210;-84
2022/05/09 09:38:32;;;;;;;6.18;3.60;;;19.10;41.30;;;;;;5096180;28;20838;-84
2022/05/09 09:41:17;;;;;;;10.20;3.45;;;19.20;40.50;;;;;;5096595;28;20184;-84
2022/05/09 09:43:43;;;;;;;6.35;3.00;;;19.30;39.60;;;;;;5096854;28;20549;-84
2022/05/09 09:46:09;;;;;;;9.00;2.80;;;19.40;38.60;;;;;;5063811;28;20203;-84
2022/05/09 09:48:35;;;;;;;5.50;3.13;;;19.50;38.60;;;;;;5064179;28;20196;-84
2022/05/09 09:51:03;;;;;;;5.97;2.70;;;19.50;38.40;;;;;;5082395;28;20181;-84
2022/05/09 09:53:40;;;;;;;8.63;2.75;;;19.60;37.90;;;;;;5097269;28;20177;-85
2022/05/09 09:56:21;;;;;;;3.05;1.65;;;19.60;37.40;;;;;;5062919;28;20222;-85
2022/05/09 09:58:51;;;;;;;3.53;1.90;;;19.60;37.00;;;;;;5097101;28;20203;-85
2022/05/09 10:01:26;;;;;;;5.47;2.42;;;19.70;37.90;;;;;;5066633;28;20770;-85
2022/05/09 10:04:12;;;;;;;6.78;2.33;;;19.80;37.80;;;;;;5082937;28;20176;-84
2022/05/09 10:07:10;;;;;;;7.38;2.22;;;19.90;36.60;;;;;;5093149;28;20172;-84
2022/05/09 10:09:44;;;;;;;5.50;2.85;;;19.80;36.20;;;;;;5085837;28;20207;-84
2022/05/09 10:12:14;;;;;;;6.60;2.17;;;19.70;36.00;;;;;;5071275;28;20210;-84
2022/05/09 10:14:40;;;;;;;8.48;2.40;;;19.80;35.40;;;;;;5066191;28;20211;-85
2022/05/09 10:17:20;;;;;;;7.05;2.90;;;19.80;36.10;;;;;;5067517;28;20241;-84
2022/05/09 10:19:46;;;;;;;7.47;2.50;;;19.70;36.80;;;;;;5069313;28;20231;-84
2022/05/09 10:25:14;;;;;;;4.95;2.40;;;19.80;37.10;;;;;;5077647;28;20214;-85
2022/05/09 10:27:41;;;;;;;4.40;2.80;;;19.60;37.90;;;;;;5079999;28;20278;-84
2022/05/09 10:30:29;;;;;;;2.97;1.90;;;19.60;37.60;;;;;;5056927;28;20176;-84
2022/05/09 10:33:18;;;;;;;5.80;2.78;;;19.90;36.70;;;;;;5088547;28;20462;-84
2022/05/09 10:35:53;;;;;;;9.33;2.97;;;19.80;37.70;;;;;;5069973;28;20187;-85
2022/05/09 10:38:43;;;;;;;7.80;2.67;;;19.60;37.80;;;;;;5066019;28;20461;-84
2022/05/09 10:41:25;;;;;;;2.75;2.15;;;19.80;37.10;;;;;;5065484;28;20623;-85
2022/05/09 10:44:04;;;;;;;6.30;2.07;;;20.10;37.10;;;;;;5066674;28;20174;-84
2022/05/09 10:46:56;;;;;;;3.23;2.50;;;20.40;36.80;;;;;;5068001;28;20418;-84
2022/05/09 10:49:41;;;;;;;5.30;2.30;;;20.50;35.80;;;;;;5065734;28;20853;-84
2022/05/09 10:52:14;;;;;;;9.50;3.50;;;20.60;36.80;;;;;;5083752;28;20528;-84
2022/05/09 10:54:50;;;;;;;3.63;2.33;;;20.70;36.40;;;;;;5063939;28;20472;-84
2022/05/09 10:57:18;;;;;;;3.97;2.37;;;20.70;37.70;;;;;;5063122;28;20410;-84
2022/05/09 10:59:45;;;;;;;3.80;2.53;;;20.60;37.70;;;;;;5081013;28;20466;-87
2022/05/09 11:02:37;;;;;;;3.07;2.50;;;20.30;37.50;;;;;;5062649;28;20911;-85
2022/05/09 11:05:06;;;;;;;5.83;2.83;;;20.00;38.40;;;;;;5062260;28;20406;-84
2022/05/09 11:07:57;;;;;;;7.67;2.93;;;19.80;38.90;;;;;;5046828;28;20459;-84
2022/05/09 11:10:38;;;;;;;3.30;2.83;;;20.10;37.90;;;;;;5066122;28;20999;-86
2022/05/09 11:13:27;;;;;;;2.90;2.20;;;20.50;37.20;;;;;;5078694;28;20496;-84
2022/05/09 11:16:21;;;;;;;3.50;2.70;;;20.60;36.60;;;;;;5097087;28;20475;-84
2022/05/09 11:19:14;;;;;;;5.30;2.33;;;20.80;36.10;;;;;;5096001;28;20458;-84
2022/05/09 11:21:49;;;;;;;6.20;2.97;;;20.90;36.60;;;;;;5087636;28;20446;-85
2022/05/09 11:24:42;;;;;;;5.40;3.43;;;21.10;35.90;;;;;;5098049;28;20429;-84
2022/05/09 11:27:29;;;;;;;5.87;3.30;;;21.30;35.90;;;;;;5087035;28;20531;-85
2022/05/09 11:30:22;;;;;;;5.93;3.30;;;21.50;35.30;;;;;;5086308;28;20467;-85
2022/05/09 11:33:13;;;;;;;7.00;4.23;;;21.50;36.30;;;;;;5101547;28;20485;-84
2022/05/09 11:35:40;;;;;;;4.60;3.30;;;21.60;35.00;;;;;;5082599;28;20416;-84
2022/05/09 11:38:26;;;;;;;5.60;3.10;;;21.60;34.90;;;;;;5101946;28;20457;-84
2022/05/09 11:40:59;;;;;;;6.80;3.67;;;21.40;35.70;;;;;;5084186;28;20442;-85
2022/05/09 11:43:43;;;;;;;3.93;2.50;;;21.10;36.60;;;;;;5084481;28;20445;-84
2022/05/09 11:46:27;;;;;;;6.37;3.70;;;21.20;37.10;;;;;;5083502;28;20406;-84
2022/05/09 11:49:11;;;;;;;6.50;4.00;;;21.40;36.70;;;;;;5083628;28;20444;-84
2022/05/09 11:51:48;;;;;;;7.80;3.90;;;21.60;37.20;;;;;;5084908;28;20413;-84
2022/05/09 11:54:27;;;;;;;5.17;3.00;;;21.80;36.80;;;;;;5099965;28;20414;-84
2022/05/09 11:57:03;;;;;;;12.70;4.20;;;21.80;36.00;;;;;;5086845;28;20417;-84
2022/05/09 11:59:32;;;;;;;6.67;3.50;;;21.90;36.80;;;;;;5091018;28;20488;-84
2022/05/09 12:02:08;;;;;;;4.67;3.50;;;22.00;35.70;;;;;;5097816;28;20464;-84
2022/05/09 12:04:47;;;;;;;8.70;3.23;;;22.00;34.90;;;;;;5088275;28;20422;-84
2022/05/09 12:07:22;;;;;;;5.57;3.10;;;21.80;35.70;;;;;;5064007;28;20468;-84
2022/05/09 12:10:07;;;;;;;8.63;3.40;;;21.80;35.70;;;;;;5072323;28;20438;-85
2022/05/09 12:12:43;;;;;;;4.30;3.27;;;22.00;35.30;;;;;;5059656;28;20996;-84
2022/05/09 12:15:12;;;;;;;5.60;3.43;;;22.00;35.40;;;;;;5076523;28;20926;-84
2022/05/09 12:17:39;;;;;;;4.93;3.80;;;22.00;35.30;;;;;;5070696;28;20418;-84
2022/05/09 12:20:11;;;;;;;7.77;4.57;;;22.00;35.40;;;;;;5070924;28;20422;-85
2022/05/09 12:22:47;;;;;;;8.00;3.90;;;22.10;36.30;;;;;;5086096;28;20482;-86
2022/05/09 12:25:42;;;;;;;8.10;4.30;;;22.20;37.00;;;;;;5118873;28;20825;-84
2022/05/09 12:28:16;;;;;;;5.43;4.10;;;22.40;37.40;;;;;;5027971;28;20450;-84
2022/05/09 12:30:54;;;;;;;4.63;3.77;;;22.60;37.80;;;;;;5101055;28;20406;-84
2022/05/09 12:33:41;;;;;;;6.97;4.10;;;22.60;36.60;;;;;;5081193;28;20410;-85
2022/05/09 12:36:09;;;;;;;7.50;4.87;;;22.70;36.60;;;;;;5070506;28;20418;-84
2022/05/09 12:38:40;;;;;;;7.00;5.00;;;22.60;35.90;;;;;;5061742;28;20466;-85
2022/05/09 12:41:13;;;;;;;10.17;4.87;;;22.30;36.70;;;;;;5046785;28;20403;-84
2022/05/09 12:43:44;;;;;;;9.43;4.70;;;22.10;37.10;;;;;;5062103;28;20483;-84
2022/05/09 12:46:25;;;;;;;7.47;4.23;;;22.20;37.10;;;;;;5061432;28;20496;-84
2022/05/09 12:48:55;;;;;;;8.20;4.63;;;22.30;36.80;;;;;;5080230;28;20434;-85
2022/05/09 12:51:39;;;;;;;6.33;5.17;;;22.40;37.40;;;;;;5072569;28;20422;-84
2022/05/09 12:54:17;;;;;;;7.53;5.00;;;22.60;37.70;;;;;;5081727;28;20425;-84
2022/05/09 12:56:49;;;;;;;9.00;5.53;;;22.70;38.00;;;;;;5081738;28;20418;-84
2022/05/09 12:59:16;;;;;;;9.13;5.90;;;22.80;38.20;;;;;;5102694;28;20449;-84
2022/05/09 13:01:44;;;;;;;7.13;4.40;;;22.90;38.10;;;;;;5080425;28;20411;-84
2022/05/09 13:04:26;;;;;;;7.87;5.27;;;23.00;38.00;;;;;;5063799;28;20965;-83
2022/05/09 13:07:00;;;;;;;7.17;4.83;;;22.90;38.00;;;;;;5091632;28;20409;-84
2022/05/09 13:09:45;;;;;;;4.77;3.97;;;22.90;38.20;;;;;;5019091;28;1219828;-85